sensor_id;sensor_type;location;lat;lon;timestamp;pressure;altitude;pressure_sealevel;temperature;humidity
39209;BME280;24929;51.982;4.664;2022-08-19T00:01:26;75915.69;;;-143.36;nan
39209;BME280;24929;51.982;4.664;2022-08-19T00:03:52;75897.63;;;-143.36;nan
39209;BME280;24929;51.982;4.664;2022-08-19T00:06:18;75945.78;;;-143.36;nan
39209;BME280;24929;51.982;4.664;2022-08-19T00:08:43;75971.88;;;-143.36;nan
39209;BME280;24929;51.982;4.664;2022-08-19T00:11:09;75947.78;;;-143.36;nan
39209;BME280;24929;51.982;4.664;2022-08-19T00:13:34;75949.78;;;-143.36;nan
39209;BME280;24929;51.982;4.664;2022-08-19T00:16:00;75947.78;;;-143.36;nan
39209;BME280;24929;51.982;4.664;2022-08-19T00:18:26;75977.88;;;-143.36;nan
39209;BME280;24929;51.982;4.664;2022-08-19T00:20:52;75937.75;;;-143.36;nan
39209;BME280;24929;51.982;4.664;2022-08-19T00:23:18;75945.78;;;-143.36;nan
39209;BME280;24929;51.982;4.664;2022-08-19T00:25:44;75961.84;;;-143.36;nan
39209;BME280;24929;51.982;4.664;2022-08-19T00:28:09;75961.84;;;-143.36;nan
39209;BME280;24929;51.982;4.664;2022-08-19T00:30:35;75935.75;;;-143.36;nan
39209;BME280;24929;51.982;4.664;2022-08-19T00:33:00;75947.78;;;-143.36;nan
39209;BME280;24929;51.982;4.664;2022-08-19T00:35:26;75907.66;;;-143.36;nan
39209;BME280;24929;51.982;4.664;2022-08-19T00:37:53;75901.63;;;-143.36;nan
39209;BME280;24929;51.982;4.664;2022-08-19T00:40:18;75919.69;;;-143.36;nan
39209;BME280;24929;51.982;4.664;2022-08-19T00:42:45;75943.78;;;-143.36;nan
39209;BME280;24929;51.982;4.664;2022-08-19T00:45:15;75907.66;;;-143.36;nan
39209;BME280;24929;51.982;4.664;2022-08-19T00:47:42;75929.72;;;-143.36;nan
39209;BME280;24929;51.982;4.664;2022-08-19T00:50:09;75935.75;;;-143.36;nan
39209;BME280;24929;51.982;4.664;2022-08-19T00:52:38;75941.75;;;-143.36;nan
39209;BME280;24929;51.982;4.664;2022-08-19T00:55:08;75921.69;;;-143.36;nan
39209;BME280;24929;51.982;4.664;2022-08-19T00:57:39;75931.72;;;-143.36;nan
39209;BME280;24929;51.982;4.664;2022-08-19T01:00:10;75919.69;;;-143.36;nan
39209;BME280;24929;51.982;4.664;2022-08-19T01:02:37;75943.78;;;-143.36;nan
39209;BME280;24929;51.982;4.664;2022-08-19T01:05:06;75935.75;;;-143.36;nan
39209;BME280;24929;51.982;4.664;2022-08-19T01:07:34;75973.88;;;-143.36;nan
39209;BME280;24929;51.982;4.664;2022-08-19T01:10:00;75979.88;;;-143.36;nan
39209;BME280;24929;51.982;4.664;2022-08-19T01:12:26;75999.94;;;-143.36;nan
39209;BME280;24929;51.982;4.664;2022-08-19T01:14:52;75999.94;;;-143.36;nan
39209;BME280;24929;51.982;4.664;2022-08-19T01:17:18;75989.91;;;-143.36;nan
39209;BME280;24929;51.982;4.664;2022-08-19T01:19:47;76003.97;;;-143.36;nan
39209;BME280;24929;51.982;4.664;2022-08-19T01:22:34;75917.69;;;-143.36;nan
39209;BME280;24929;51.982;4.664;2022-08-19T01:25:03;75997.94;;;-143.36;nan
39209;BME280;24929;51.982;4.664;2022-08-19T01:27:40;75955.81;;;-143.36;nan
39209;BME280;24929;51.982;4.664;2022-08-19T01:30:06;75985.91;;;-143.36;nan
39209;BME280;24929;51.982;4.664;2022-08-19T01:32:32;76010.00;;;-143.36;nan
39209;BME280;24929;51.982;4.664;2022-08-19T01:34:58;75991.94;;;-143.36;nan
39209;BME280;24929;51.982;4.664;2022-08-19T01:37:26;75997.94;;;-143.36;nan
39209;BME280;24929;51.982;4.664;2022-08-19T01:39:52;76005.97;;;-143.36;nan
39209;BME280;24929;51.982;4.664;2022-08-19T01:42:17;76003.97;;;-143.36;nan
39209;BME280;24929;51.982;4.664;2022-08-19T01:44:43;76016.00;;;-143.36;nan
39209;BME280;24929;51.982;4.664;2022-08-19T01:47:08;76010.00;;;-143.36;nan
39209;BME280;24929;51.982;4.664;2022-08-19T01:49:35;75995.94;;;-143.36;nan
39209;BME280;24929;51.982;4.664;2022-08-19T01:52:01;75985.91;;;-143.36;nan
39209;BME280;24929;51.982;4.664;2022-08-19T01:54:27;75951.78;;;-143.36;nan
39209;BME280;24929;51.982;4.664;2022-08-19T01:56:56;75973.88;;;-143.36;nan
39209;BME280;24929;51.982;4.664;2022-08-19T01:59:23;75989.91;;;-143.36;nan
39209;BME280;24929;51.982;4.664;2022-08-19T02:01:49;75971.88;;;-143.36;nan
39209;BME280;24929;51.982;4.664;2022-08-19T02:04:14;75963.84;;;-143.36;nan
39209;BME280;24929;51.982;4.664;2022-08-19T02:06:40;75995.94;;;-143.36;nan
39209;BME280;24929;51.982;4.664;2022-08-19T02:09:06;75995.94;;;-143.36;nan
39209;BME280;24929;51.982;4.664;2022-08-19T02:11:35;75989.91;;;-143.36;nan
39209;BME280;24929;51.982;4.664;2022-08-19T02:14:03;75989.91;;;-143.36;nan
39209;BME280;24929;51.982;4.664;2022-08-19T02:16:29;76022.03;;;-143.36;nan
39209;BME280;24929;51.982;4.664;2022-08-19T02:18:56;76014.00;;;-143.36;nan
39209;BME280;24929;51.982;4.664;2022-08-19T02:21:22;76003.97;;;-143.36;nan
39209;BME280;24929;51.982;4.664;2022-08-19T02:23:49;76020.03;;;-143.36;nan
39209;BME280;24929;51.982;4.664;2022-08-19T02:26:15;76018.00;;;-143.36;nan
39209;BME280;24929;51.982;4.664;2022-08-19T02:28:41;76007.97;;;-143.36;nan
39209;BME280;24929;51.982;4.664;2022-08-19T02:31:16;75981.91;;;-143.36;nan
39209;BME280;24929;51.982;4.664;2022-08-19T02:33:43;76040.09;;;-143.36;nan
39209;BME280;24929;51.982;4.664;2022-08-19T02:36:09;76040.09;;;-143.36;nan
39209;BME280;24929;51.982;4.664;2022-08-19T02:38:35;76060.16;;;-143.36;nan
39209;BME280;24929;51.982;4.664;2022-08-19T02:41:14;76012.00;;;-143.36;nan
39209;BME280;24929;51.982;4.664;2022-08-19T02:43:39;76062.16;;;-143.36;nan
39209;BME280;24929;51.982;4.664;2022-08-19T02:46:21;76016.00;;;-143.36;nan
39209;BME280;24929;51.982;4.664;2022-08-19T02:48:59;76005.97;;;-143.36;nan
39209;BME280;24929;51.982;4.664;2022-08-19T02:51:28;76038.06;;;-143.36;nan
39209;BME280;24929;51.982;4.664;2022-08-19T02:53:53;76058.13;;;-143.36;nan
39209;BME280;24929;51.982;4.664;2022-08-19T02:56:21;76042.09;;;-143.36;nan
39209;BME280;24929;51.982;4.664;2022-08-19T02:58:47;76046.09;;;-143.36;nan
39209;BME280;24929;51.982;4.664;2022-08-19T03:01:23;76010.00;;;-143.36;nan
39209;BME280;24929;51.982;4.664;2022-08-19T03:03:49;76052.13;;;-143.36;nan
39209;BME280;24929;51.982;4.664;2022-08-19T03:06:15;76044.09;;;-143.36;nan
39209;BME280;24929;51.982;4.664;2022-08-19T03:08:43;75995.94;;;-143.36;nan
39209;BME280;24929;51.982;4.664;2022-08-19T03:11:21;75951.78;;;-143.36;nan
39209;BME280;24929;51.982;4.664;2022-08-19T03:13:47;76005.97;;;-143.36;nan
39209;BME280;24929;51.982;4.664;2022-08-19T03:16:14;75991.94;;;-143.36;nan
39209;BME280;24929;51.982;4.664;2022-08-19T03:18:40;75981.91;;;-143.36;nan
39209;BME280;24929;51.982;4.664;2022-08-19T03:21:06;75953.81;;;-143.36;nan
39209;BME280;24929;51.982;4.664;2022-08-19T03:23:32;75967.84;;;-143.36;nan
39209;BME280;24929;51.982;4.664;2022-08-19T03:25:57;75975.88;;;-143.36;nan
39209;BME280;24929;51.982;4.664;2022-08-19T03:28:23;76014.00;;;-143.36;nan
39209;BME280;24929;51.982;4.664;2022-08-19T03:31:03;75971.88;;;-143.36;nan
39209;BME280;24929;51.982;4.664;2022-08-19T03:33:31;76028.03;;;-143.36;nan
39209;BME280;24929;51.982;4.664;2022-08-19T03:36:01;76028.03;;;-143.36;nan
39209;BME280;24929;51.982;4.664;2022-08-19T03:38:28;76076.19;;;-143.36;nan
39209;BME280;24929;51.982;4.664;2022-08-19T03:40:53;76086.22;;;-143.36;nan
39209;BME280;24929;51.982;4.664;2022-08-19T03:43:18;76094.25;;;-143.36;nan
39209;BME280;24929;51.982;4.664;2022-08-19T03:45:44;76092.25;;;-143.36;nan
39209;BME280;24929;51.982;4.664;2022-08-19T03:48:09;76092.25;;;-143.36;nan
39209;BME280;24929;51.982;4.664;2022-08-19T03:50:38;76052.13;;;-143.36;nan
39209;BME280;24929;51.982;4.664;2022-08-19T03:53:04;76108.31;;;-143.36;nan
39209;BME280;24929;51.982;4.664;2022-08-19T03:55:29;76086.22;;;-143.36;nan
39209;BME280;24929;51.982;4.664;2022-08-19T03:57:55;76092.25;;;-143.36;nan
39209;BME280;24929;51.982;4.664;2022-08-19T04:00:21;76168.50;;;-143.36;nan
39209;BME280;24929;51.982;4.664;2022-08-19T04:02:46;76248.75;;;-143.36;nan
39209;BME280;24929;51.982;4.664;2022-08-19T04:05:12;76214.66;;;-143.36;nan
39209;BME280;24929;51.982;4.664;2022-08-19T04:07:39;76210.63;;;-143.36;nan
39209;BME280;24929;51.982;4.664;2022-08-19T04:10:05;76254.78;;;-143.36;nan
39209;BME280;24929;51.982;4.664;2022-08-19T04:12:31;76250.78;;;-143.36;nan
39209;BME280;24929;51.982;4.664;2022-08-19T04:14:56;76252.78;;;-143.36;nan
39209;BME280;24929;51.982;4.664;2022-08-19T04:17:21;76250.78;;;-143.36;nan
39209;BME280;24929;51.982;4.664;2022-08-19T04:19:47;76266.81;;;-143.36;nan
39209;BME280;24929;51.982;4.664;2022-08-19T04:22:12;76258.78;;;-143.36;nan
39209;BME280;24929;51.982;4.664;2022-08-19T04:24:37;76296.91;;;-143.36;nan
39209;BME280;24929;51.982;4.664;2022-08-19T04:27:04;76220.66;;;-143.36;nan
39209;BME280;24929;51.982;4.664;2022-08-19T04:29:30;76264.81;;;-143.36;nan
39209;BME280;24929;51.982;4.664;2022-08-19T04:31:57;76232.72;;;-143.36;nan
39209;BME280;24929;51.982;4.664;2022-08-19T04:34:25;76228.69;;;-143.36;nan
39209;BME280;24929;51.982;4.664;2022-08-19T04:36:53;76268.81;;;-143.36;nan
39209;BME280;24929;51.982;4.664;2022-08-19T04:39:28;76208.63;;;-143.36;nan
39209;BME280;24929;51.982;4.664;2022-08-19T04:42:12;76218.66;;;-143.36;nan
39209;BME280;24929;51.982;4.664;2022-08-19T04:44:57;76216.66;;;-143.36;nan
39209;BME280;24929;51.982;4.664;2022-08-19T04:47:23;76232.72;;;-143.36;nan
39209;BME280;24929;51.982;4.664;2022-08-19T04:49:49;76232.72;;;-143.36;nan
39209;BME280;24929;51.982;4.664;2022-08-19T04:52:14;76232.72;;;-143.36;nan
39209;BME280;24929;51.982;4.664;2022-08-19T04:54:39;76204.63;;;-143.36;nan
39209;BME280;24929;51.982;4.664;2022-08-19T04:57:06;76178.53;;;-143.36;nan
39209;BME280;24929;51.982;4.664;2022-08-19T04:59:35;76196.59;;;-143.36;nan
39209;BME280;24929;51.982;4.664;2022-08-19T05:02:02;76190.56;;;-143.36;nan
39209;BME280;24929;51.982;4.664;2022-08-19T05:04:27;76202.63;;;-143.36;nan
39209;BME280;24929;51.982;4.664;2022-08-19T05:06:59;76176.53;;;-143.36;nan
39209;BME280;24929;51.982;4.664;2022-08-19T05:09:25;76194.59;;;-143.36;nan
39209;BME280;24929;51.982;4.664;2022-08-19T05:11:50;76154.44;;;-143.36;nan
39209;BME280;24929;51.982;4.664;2022-08-19T05:14:17;76140.41;;;-143.36;nan
39209;BME280;24929;51.982;4.664;2022-08-19T05:16:43;76152.44;;;-143.36;nan
39209;BME280;24929;51.982;4.664;2022-08-19T05:19:09;76142.41;;;-143.36;nan
39209;BME280;24929;51.982;4.664;2022-08-19T05:21:53;76108.31;;;-143.36;nan
39209;BME280;24929;51.982;4.664;2022-08-19T05:24:37;76104.28;;;-143.36;nan
39209;BME280;24929;51.982;4.664;2022-08-19T05:27:03;76118.34;;;-143.36;nan
39209;BME280;24929;51.982;4.664;2022-08-19T05:29:29;76116.31;;;-143.36;nan
39209;BME280;24929;51.982;4.664;2022-08-19T05:31:57;76116.31;;;-143.36;nan
39209;BME280;24929;51.982;4.664;2022-08-19T05:34:24;76106.28;;;-143.36;nan
39209;BME280;24929;51.982;4.664;2022-08-19T05:36:57;76078.22;;;-143.36;nan
39209;BME280;24929;51.982;4.664;2022-08-19T05:39:26;76070.19;;;-143.36;nan
39209;BME280;24929;51.982;4.664;2022-08-19T05:41:56;76060.16;;;-143.36;nan
39209;BME280;24929;51.982;4.664;2022-08-19T05:44:23;76066.16;;;-143.36;nan
39209;BME280;24929;51.982;4.664;2022-08-19T05:46:48;76054.13;;;-143.36;nan
39209;BME280;24929;51.982;4.664;2022-08-19T05:49:15;76026.03;;;-143.36;nan
39209;BME280;24929;51.982;4.664;2022-08-19T05:51:42;76050.13;;;-143.36;nan
39209;BME280;24929;51.982;4.664;2022-08-19T05:54:07;76078.22;;;-143.36;nan
39209;BME280;24929;51.982;4.664;2022-08-19T05:56:34;76062.16;;;-143.36;nan
39209;BME280;24929;51.982;4.664;2022-08-19T05:59:04;76046.09;;;-143.36;nan
39209;BME280;24929;51.982;4.664;2022-08-19T06:01:33;76050.13;;;-143.36;nan
39209;BME280;24929;51.982;4.664;2022-08-19T06:04:00;75993.94;;;-143.36;nan
39209;BME280;24929;51.982;4.664;2022-08-19T06:06:25;76001.97;;;-143.36;nan
39209;BME280;24929;51.982;4.664;2022-08-19T06:08:51;76014.00;;;-143.36;nan
39209;BME280;24929;51.982;4.664;2022-08-19T06:11:33;75841.44;;;-143.36;nan
39209;BME280;24929;51.982;4.664;2022-08-19T06:14:04;75819.38;;;-143.36;nan
39209;BME280;24929;51.982;4.664;2022-08-19T06:16:33;75825.41;;;-143.36;nan
39209;BME280;24929;51.982;4.664;2022-08-19T06:19:02;75787.28;;;-143.36;nan
39209;BME280;24929;51.982;4.664;2022-08-19T06:21:29;75789.28;;;-143.36;nan
39209;BME280;24929;51.982;4.664;2022-08-19T06:23:56;75797.31;;;-143.36;nan
39209;BME280;24929;51.982;4.664;2022-08-19T06:26:22;75813.34;;;-143.36;nan
39209;BME280;24929;51.982;4.664;2022-08-19T06:28:48;75809.34;;;-143.36;nan
39209;BME280;24929;51.982;4.664;2022-08-19T06:31:22;75803.31;;;-143.36;nan
39209;BME280;24929;51.982;4.664;2022-08-19T06:33:48;75809.34;;;-143.36;nan
39209;BME280;24929;51.982;4.664;2022-08-19T06:36:25;75813.34;;;-143.36;nan
39209;BME280;24929;51.982;4.664;2022-08-19T06:38:56;75793.28;;;-143.36;nan
39209;BME280;24929;51.982;4.664;2022-08-19T06:41:23;75811.34;;;-143.36;nan
39209;BME280;24929;51.982;4.664;2022-08-19T06:43:49;75833.41;;;-143.36;nan
39209;BME280;24929;51.982;4.664;2022-08-19T06:46:15;75765.22;;;-143.36;nan
39209;BME280;24929;51.982;4.664;2022-08-19T06:48:41;75803.31;;;-143.36;nan
39209;BME280;24929;51.982;4.664;2022-08-19T06:51:07;75759.19;;;-143.36;nan
39209;BME280;24929;51.982;4.664;2022-08-19T06:53:33;75741.13;;;-143.36;nan
39209;BME280;24929;51.982;4.664;2022-08-19T06:55:59;75735.09;;;-143.36;nan
39209;BME280;24929;51.982;4.664;2022-08-19T06:58:31;75668.91;;;-143.36;nan
39209;BME280;24929;51.982;4.664;2022-08-19T07:01:03;75660.88;;;-143.36;nan
39209;BME280;24929;51.982;4.664;2022-08-19T07:03:31;75644.81;;;-143.36;nan
39209;BME280;24929;51.982;4.664;2022-08-19T07:06:08;75674.91;;;-143.36;nan
39209;BME280;24929;51.982;4.664;2022-08-19T07:08:35;75729.09;;;-143.36;nan
39209;BME280;24929;51.982;4.664;2022-08-19T07:11:05;75737.13;;;-143.36;nan
39209;BME280;24929;51.982;4.664;2022-08-19T07:13:33;75717.06;;;-143.36;nan
39209;BME280;24929;51.982;4.664;2022-08-19T07:18:30;75727.09;;;-143.36;nan
39209;BME280;24929;51.982;4.664;2022-08-19T07:21:08;75634.78;;;-143.36;nan
39209;BME280;24929;51.982;4.664;2022-08-19T07:23:35;75701.00;;;-143.36;nan
39209;BME280;24929;51.982;4.664;2022-08-19T07:26:06;75614.72;;;-143.36;nan
39209;BME280;24929;51.982;4.664;2022-08-19T07:28:32;75652.84;;;-143.36;nan
39209;BME280;24929;51.982;4.664;2022-08-19T07:30:57;75554.53;;;-143.36;nan
39209;BME280;24929;51.982;4.664;2022-08-19T07:33:23;75470.28;;;-143.36;nan
39209;BME280;24929;51.982;4.664;2022-08-19T07:35:48;75418.13;;;-143.36;nan
39209;BME280;24929;51.982;4.664;2022-08-19T07:38:15;75424.13;;;-143.36;nan
39209;BME280;24929;51.982;4.664;2022-08-19T07:40:40;75396.06;;;-143.36;nan
39209;BME280;24929;51.982;4.664;2022-08-19T07:43:06;75365.97;;;-143.36;nan
39209;BME280;24929;51.982;4.664;2022-08-19T07:45:31;75378.00;;;-143.36;nan
39209;BME280;24929;51.982;4.664;2022-08-19T07:47:57;75319.81;;;-143.36;nan
39209;BME280;24929;51.982;4.664;2022-08-19T07:50:23;75277.69;;;-143.36;nan
39209;BME280;24929;51.982;4.664;2022-08-19T07:52:49;75325.84;;;-143.36;nan
39209;BME280;24929;51.982;4.664;2022-08-19T07:55:16;75317.81;;;-143.36;nan
39209;BME280;24929;51.982;4.664;2022-08-19T07:57:42;75295.75;;;-143.36;nan
39209;BME280;24929;51.982;4.664;2022-08-19T08:00:08;75359.94;;;-143.36;nan
39209;BME280;24929;51.982;4.664;2022-08-19T08:02:33;75450.22;;;-143.36;nan
39209;BME280;24929;51.982;4.664;2022-08-19T08:04:59;75460.25;;;-143.36;nan
39209;BME280;24929;51.982;4.664;2022-08-19T08:07:43;75520.44;;;-143.36;nan
39209;BME280;24929;51.982;4.664;2022-08-19T08:10:27;75548.53;;;-143.36;nan
39209;BME280;24929;51.982;4.664;2022-08-19T08:12:53;75578.63;;;-143.36;nan
39209;BME280;24929;51.982;4.664;2022-08-19T08:15:20;75556.56;;;-143.36;nan
39209;BME280;24929;51.982;4.664;2022-08-19T08:17:46;75620.75;;;-143.36;nan
39209;BME280;24929;51.982;4.664;2022-08-19T08:20:13;75564.56;;;-143.36;nan
39209;BME280;24929;51.982;4.664;2022-08-19T08:22:43;75532.47;;;-143.36;nan
39209;BME280;24929;51.982;4.664;2022-08-19T08:25:27;75574.59;;;-143.36;nan
39209;BME280;24929;51.982;4.664;2022-08-19T08:27:52;75586.66;;;-143.36;nan
39209;BME280;24929;51.982;4.664;2022-08-19T08:30:20;75526.47;;;-143.36;nan
39209;BME280;24929;51.982;4.664;2022-08-19T08:32:46;75578.63;;;-143.36;nan
39209;BME280;24929;51.982;4.664;2022-08-19T08:35:14;75496.38;;;-143.36;nan
39209;BME280;24929;51.982;4.664;2022-08-19T08:37:40;75556.56;;;-143.36;nan
39209;BME280;24929;51.982;4.664;2022-08-19T08:40:14;75508.41;;;-143.36;nan
39209;BME280;24929;51.982;4.664;2022-08-19T08:42:48;75468.28;;;-143.36;nan
39209;BME280;24929;51.982;4.664;2022-08-19T08:45:17;75500.38;;;-143.36;nan
39209;BME280;24929;51.982;4.664;2022-08-19T08:47:47;75510.41;;;-143.36;nan
39209;BME280;24929;51.982;4.664;2022-08-19T08:50:32;75630.78;;;-143.36;nan
39209;BME280;24929;51.982;4.664;2022-08-19T08:53:01;75680.94;;;-143.36;nan
39209;BME280;24929;51.982;4.664;2022-08-19T08:55:29;75574.59;;;-143.36;nan
39209;BME280;24929;51.982;4.664;2022-08-19T08:58:06;75474.28;;;-143.36;nan
39209;BME280;24929;51.982;4.664;2022-08-19T09:00:37;75414.09;;;-143.36;nan
39209;BME280;24929;51.982;4.664;2022-08-19T09:03:06;75416.13;;;-143.36;nan
39209;BME280;24929;51.982;4.664;2022-08-19T09:16:58;75305.78;;;-143.36;nan
39209;BME280;24929;51.982;4.664;2022-08-19T09:19:25;75299.75;;;-143.36;nan
39209;BME280;24929;51.982;4.664;2022-08-19T09:21:50;75239.56;;;-143.36;nan
39209;BME280;24929;51.982;4.664;2022-08-19T09:24:16;75197.44;;;-143.36;nan
39209;BME280;24929;51.982;4.664;2022-08-19T09:26:41;75209.50;;;-143.36;nan
39209;BME280;24929;51.982;4.664;2022-08-19T09:29:09;75225.53;;;-143.36;nan
39209;BME280;24929;51.982;4.664;2022-08-19T09:31:35;75293.75;;;-143.36;nan
39209;BME280;24929;51.982;4.664;2022-08-19T09:34:00;75201.47;;;-143.36;nan
39209;BME280;24929;51.982;4.664;2022-08-19T09:36:28;75207.47;;;-143.36;nan
39209;BME280;24929;51.982;4.664;2022-08-19T09:38:55;75223.53;;;-143.36;nan
39209;BME280;24929;51.982;4.664;2022-08-19T09:41:23;75163.34;;;-143.36;nan
39209;BME280;24929;51.982;4.664;2022-08-19T09:43:51;75127.25;;;-143.36;nan
39209;BME280;24929;51.982;4.664;2022-08-19T09:46:19;75157.31;;;-143.36;nan
39209;BME280;24929;51.982;4.664;2022-08-19T09:48:47;75243.59;;;-143.36;nan
39209;BME280;24929;51.982;4.664;2022-08-19T09:51:16;75229.56;;;-143.36;nan
39209;BME280;24929;51.982;4.664;2022-08-19T09:53:47;75223.53;;;-143.36;nan
39209;BME280;24929;51.982;4.664;2022-08-19T09:56:16;75281.72;;;-143.36;nan
39209;BME280;24929;51.982;4.664;2022-08-19T09:58:41;75355.94;;;-143.36;nan
39209;BME280;24929;51.982;4.664;2022-08-19T10:01:07;75386.03;;;-143.36;nan
39209;BME280;24929;51.982;4.664;2022-08-19T10:03:34;75369.97;;;-143.36;nan
39209;BME280;24929;51.982;4.664;2022-08-19T10:06:02;75408.09;;;-143.36;nan
39209;BME280;24929;51.982;4.664;2022-08-19T10:08:33;75398.06;;;-143.36;nan
39209;BME280;24929;51.982;4.664;2022-08-19T10:10:59;75472.28;;;-143.36;nan
39209;BME280;24929;51.982;4.664;2022-08-19T10:13:28;75484.31;;;-143.36;nan
39209;BME280;24929;51.982;4.664;2022-08-19T10:15:56;75500.38;;;-143.36;nan
39209;BME280;24929;51.982;4.664;2022-08-19T10:18:23;75550.53;;;-143.36;nan
39209;BME280;24929;51.982;4.664;2022-08-19T10:20:49;75544.50;;;-143.36;nan
39209;BME280;24929;51.982;4.664;2022-08-19T10:23:16;75536.50;;;-143.36;nan
39209;BME280;24929;51.982;4.664;2022-08-19T10:25:42;75548.53;;;-143.36;nan
39209;BME280;24929;51.982;4.664;2022-08-19T10:28:09;75510.41;;;-143.36;nan
39209;BME280;24929;51.982;4.664;2022-08-19T10:30:38;75498.38;;;-143.36;nan
39209;BME280;24929;51.982;4.664;2022-08-19T10:33:04;75478.31;;;-143.36;nan
39209;BME280;24929;51.982;4.664;2022-08-19T10:35:30;75380.00;;;-143.36;nan
39209;BME280;24929;51.982;4.664;2022-08-19T10:37:56;75430.16;;;-143.36;nan
39209;BME280;24929;51.982;4.664;2022-08-19T10:40:25;75456.25;;;-143.36;nan
39209;BME280;24929;51.982;4.664;2022-08-19T10:42:51;75444.19;;;-143.36;nan
39209;BME280;24929;51.982;4.664;2022-08-19T10:45:17;75472.28;;;-143.36;nan
39209;BME280;24929;51.982;4.664;2022-08-19T10:47:42;75478.31;;;-143.36;nan
39209;BME280;24929;51.982;4.664;2022-08-19T10:50:08;75462.25;;;-143.36;nan
39209;BME280;24929;51.982;4.664;2022-08-19T10:52:52;75402.06;;;-143.36;nan
39209;BME280;24929;51.982;4.664;2022-08-19T10:55:21;75378.00;;;-143.36;nan
39209;BME280;24929;51.982;4.664;2022-08-19T10:58:13;75313.81;;;-143.36;nan
39209;BME280;24929;51.982;4.664;2022-08-19T11:00:39;75315.81;;;-143.36;nan
39209;BME280;24929;51.982;4.664;2022-08-19T11:03:05;75283.72;;;-143.36;nan
39209;BME280;24929;51.982;4.664;2022-08-19T11:05:31;75289.72;;;-143.36;nan
39209;BME280;24929;51.982;4.664;2022-08-19T11:07:56;75285.72;;;-143.36;nan
39209;BME280;24929;51.982;4.664;2022-08-19T11:10:21;75269.66;;;-143.36;nan
39209;BME280;24929;51.982;4.664;2022-08-19T11:12:49;75293.75;;;-143.36;nan
39209;BME280;24929;51.982;4.664;2022-08-19T11:15:19;75289.72;;;-143.36;nan
39209;BME280;24929;51.982;4.664;2022-08-19T11:17:44;75291.72;;;-143.36;nan
39209;BME280;24929;51.982;4.664;2022-08-19T11:20:14;75283.72;;;-143.36;nan
39209;BME280;24929;51.982;4.664;2022-08-19T11:22:40;75293.75;;;-143.36;nan
39209;BME280;24929;51.982;4.664;2022-08-19T11:25:08;75357.94;;;-143.36;nan
39209;BME280;24929;51.982;4.664;2022-08-19T11:27:37;75538.50;;;-143.36;nan
39209;BME280;24929;51.982;4.664;2022-08-19T11:30:03;75548.53;;;-143.36;nan
39209;BME280;24929;51.982;4.664;2022-08-19T11:32:29;75560.56;;;-143.36;nan
39209;BME280;24929;51.982;4.664;2022-08-19T11:34:54;75488.34;;;-143.36;nan
39209;BME280;24929;51.982;4.664;2022-08-19T11:37:19;75410.09;;;-143.36;nan
39209;BME280;24929;51.982;4.664;2022-08-19T11:39:45;75367.97;;;-143.36;nan
39209;BME280;24929;51.982;4.664;2022-08-19T11:42:10;75323.84;;;-143.36;nan
39209;BME280;24929;51.982;4.664;2022-08-19T11:44:54;75285.72;;;-143.36;nan
39209;BME280;24929;51.982;4.664;2022-08-19T11:47:20;75225.53;;;-143.36;nan
39209;BME280;24929;51.982;4.664;2022-08-19T11:49:46;75195.44;;;-143.36;nan
39209;BME280;24929;51.982;4.664;2022-08-19T11:52:12;75237.56;;;-143.36;nan
39209;BME280;24929;51.982;4.664;2022-08-19T11:54:37;75181.41;;;-143.36;nan
39209;BME280;24929;51.982;4.664;2022-08-19T11:57:03;75171.38;;;-143.36;nan
39209;BME280;24929;51.982;4.664;2022-08-19T11:59:29;75195.44;;;-143.36;nan
39209;BME280;24929;51.982;4.664;2022-08-19T12:01:54;75183.41;;;-143.36;nan
39209;BME280;24929;51.982;4.664;2022-08-19T12:04:21;75291.72;;;-143.36;nan
39209;BME280;24929;51.982;4.664;2022-08-19T12:06:47;75227.53;;;-143.36;nan
39209;BME280;24929;51.982;4.664;2022-08-19T12:09:12;75253.63;;;-143.36;nan
39209;BME280;24929;51.982;4.664;2022-08-19T12:11:39;75221.53;;;-143.36;nan
39209;BME280;24929;51.982;4.664;2022-08-19T12:14:06;75195.44;;;-143.36;nan
39209;BME280;24929;51.982;4.664;2022-08-19T12:16:34;75183.41;;;-143.36;nan
39209;BME280;24929;51.982;4.664;2022-08-19T12:19:00;75171.38;;;-143.36;nan
39209;BME280;24929;51.982;4.664;2022-08-19T12:21:30;75125.22;;;-143.36;nan
39209;BME280;24929;51.982;4.664;2022-08-19T12:23:58;75227.53;;;-143.36;nan
39209;BME280;24929;51.982;4.664;2022-08-19T12:26:25;75197.44;;;-143.36;nan
39209;BME280;24929;51.982;4.664;2022-08-19T12:28:51;75225.53;;;-143.36;nan
39209;BME280;24929;51.982;4.664;2022-08-19T12:31:16;75171.38;;;-143.36;nan
39209;BME280;24929;51.982;4.664;2022-08-19T12:33:43;75195.44;;;-143.36;nan
39209;BME280;24929;51.982;4.664;2022-08-19T12:36:11;75163.34;;;-143.36;nan
39209;BME280;24929;51.982;4.664;2022-08-19T12:38:37;75193.44;;;-143.36;nan
39209;BME280;24929;51.982;4.664;2022-08-19T12:41:04;75169.38;;;-143.36;nan
39209;BME280;24929;51.982;4.664;2022-08-19T12:43:32;75223.53;;;-143.36;nan
39209;BME280;24929;51.982;4.664;2022-08-19T12:45:59;75211.50;;;-143.36;nan
39209;BME280;24929;51.982;4.664;2022-08-19T12:48:25;75253.63;;;-143.36;nan
39209;BME280;24929;51.982;4.664;2022-08-19T12:50:50;75289.72;;;-143.36;nan
39209;BME280;24929;51.982;4.664;2022-08-19T12:53:15;75339.88;;;-143.36;nan
39209;BME280;24929;51.982;4.664;2022-08-19T12:55:41;75406.09;;;-143.36;nan
39209;BME280;24929;51.982;4.664;2022-08-19T12:58:07;75422.13;;;-143.36;nan
39209;BME280;24929;51.982;4.664;2022-08-19T13:00:33;75392.03;;;-143.36;nan
39209;BME280;24929;51.982;4.664;2022-08-19T13:02:59;75337.88;;;-143.36;nan
39209;BME280;24929;51.982;4.664;2022-08-19T13:05:27;75299.75;;;-143.36;nan
39209;BME280;24929;51.982;4.664;2022-08-19T13:07:55;75321.81;;;-143.36;nan
39209;BME280;24929;51.982;4.664;2022-08-19T13:10:23;75313.81;;;-143.36;nan
39209;BME280;24929;51.982;4.664;2022-08-19T13:12:51;75313.81;;;-143.36;nan
39209;BME280;24929;51.982;4.664;2022-08-19T13:15:19;75347.91;;;-143.36;nan
39209;BME280;24929;51.982;4.664;2022-08-19T13:17:46;75426.16;;;-143.36;nan